Latest Weather Observations for Wyndham Airport

IDW60801

Issued at 7:02 pm WST Saturday 30 April 2016 (issued every 30 minutes, with the page automatically refreshed every 10 minutes)

About weather observations | Map of weather stations | Latest weather observations for WA | Other Formats
Station Details ID: 001006 Name: WYNDHAM AERO Lat: -15.51 Lon: 128.15 Height: 3.8 m
Data from the previous 72 hours. | See also: Recent months at Wyndham Airport
Date/Time
WST
Temp
°C
App
Temp
°C
Dew
Point
Rel
Hum
%
Delta-T
°C
Wind Press
QNH
hPa
Press
MSL
hPa
Rain
since 9 am
mm
Dir
 
Spd
km/h
Gust
km/h
Spd
kts
Gust
kts
30/07:00pm 30.8 32.3 15.6 39 9.4 N 2 7 1 4 1010.4 1010.4 0.0
30/06:30pm 32.0 32.6 16.7 40 9.7 N 9 11 5 6 1010.0 1010.0 0.0
30/06:00pm 33.0 32.8 16.8 38 10.3 N 13 17 7 9 1009.6 1009.6 0.0
30/05:30pm 34.0 33.1 16.8 35 10.9 N 17 24 9 13 1009.1 1009.1 0.0
30/05:00pm 34.7 32.7 16.5 33 11.6 N 22 28 12 15 1008.8 1008.8 0.0
30/04:30pm 35.5 33.8 16.3 32 12.2 N 20 28 11 15 1008.4 1008.4 0.0
30/04:00pm 36.7 35.7 14.6 26 13.8 NE 13 19 7 10 1008.0 1008.0 0.0
30/03:30pm 37.1 35.5 13.8 25 14.4 ESE 15 20 8 11 1007.8 1007.8 0.0
30/03:00pm 36.7 35.0 13.5 25 14.2 ESE 15 20 8 11 1007.7 1007.7 0.0
30/02:30pm 36.8 34.7 13.5 24 14.3 ESE 17 24 9 13 1007.8 1007.8 0.0
30/02:00pm 37.9 36.1 13.2 23 15.2 NE 15 24 8 13 1008.0 1008.0 0.0
30/01:30pm 39.1 38.7 14.2 23 15.5 NNW 9 20 5 11 1008.2 1008.2 0.0
30/01:00pm 37.6 36.9 14.2 25 14.6 NNE 11 19 6 10 1008.8 1008.8 0.0
30/12:30pm 37.5 37.6 16.4 28 13.5 N 11 15 6 8 1009.3 1009.3 0.0
30/12:00pm 36.8 36.2 14.7 26 13.8 ENE 11 24 6 13 1009.8 1009.8 0.0
30/11:30am 36.6 37.0 16.2 29 13.0 S 9 17 5 9 1010.4 1010.4 0.0
30/11:00am 35.9 36.4 16.6 31 12.3 SSE 9 15 5 8 1011.1 1011.1 0.0
30/10:30am 35.4 36.1 17.1 33 11.7 SSW 9 13 5 7 1011.6 1011.6 0.0
30/10:00am 34.2 35.4 18.3 39 10.3 WSW 9 15 5 8 1012.2 1012.2 0.0
30/09:30am 33.9 35.5 19.2 42 9.7 S 9 13 5 7 1012.5 1012.5 0.0
30/09:00am 32.8 35.2 20.0 47 8.5 SW 7 13 4 7 1012.7 1012.7 0.0
30/08:30am 31.6 34.5 19.9 50 7.7 WSW 4 9 2 5 1012.6 1012.6 0.0
30/08:00am 30.7 32.9 19.7 52 7.2 W 7 11 4 6 1012.5 1012.5 0.0
30/07:30am 30.3 32.8 20.2 54 6.7 NW 7 9 4 5 1012.4 1012.4 0.0
30/07:00am 28.2 31.9 20.0 61 5.4 CALM 0 0 0 0 1012.4 1012.4 0.0
30/06:30am 25.9 29.3 19.3 67 4.2 CALM 0 0 0 0 1012.1 1012.1 0.0
30/06:00am 24.6 26.7 18.1 67 4.1 NW 4 7 2 4 1011.6 1011.6 0.0
30/05:30am 24.6 26.2 17.8 66 4.3 W 6 7 3 4 1011.3 1011.3 0.0
30/05:00am 24.5 26.0 17.7 66 4.3 W 6 7 3 4 1011.0 1011.0 0.0
30/04:30am 24.5 25.6 17.2 63 4.5 WSW 7 9 4 5 1010.7 1010.7 0.0
30/04:00am 25.4 27.7 17.8 62 4.8 W 2 7 1 4 1010.7 1010.7 0.0
30/03:30am 23.9 26.2 16.7 64 4.4 CALM 0 0 0 0 1010.3 1010.3 0.0
30/03:00am 24.2 26.2 17.0 64 4.4 NNW 2 7 1 4 1010.2 1010.2 0.0
30/02:30am 24.7 27.2 17.2 63 4.7 CALM 0 0 0 0 1010.1 1010.1 0.0
30/02:00am 24.7 27.1 16.9 62 4.8 CALM 0 0 0 0 1010.1 1010.1 0.0
30/01:30am 24.5 26.5 16.0 59 5.2 CALM 0 0 0 0 1010.1 1010.1 0.0
30/01:00am 25.0 27.2 16.4 59 5.3 CALM 0 0 0 0 1010.2 1010.2 0.0
30/12:30am 24.9 26.9 16.1 58 5.4 CALM 0 0 0 0 1010.5 1010.5 0.0
30/12:00am 25.8 28.2 16.9 58 5.5 CALM 0 0 0 0 1010.8 1010.8 0.0
 
Date/Time
WST
Temp
°C
App
Temp
°C
Dew
Point
Rel
Hum
%
Delta-T
°C
Wind Press
QNH
hPa
Press
MSL
hPa
Rain
since 9 am
mm
Dir
 
Spd
km/h
Gust
km/h
Spd
kts
Gust
kts
29/11:30pm 26.9 28.4 17.7 57 5.8 NE 6 9 3 5 1011.1 1011.1 0.0
29/11:00pm 27.6 28.3 18.0 55 6.1 E 11 13 6 7 1011.4 1011.4 0.0
29/10:30pm 27.0 27.1 16.6 53 6.4 ESE 11 15 6 8 1011.5 1011.5 0.0
29/10:00pm 28.2 28.1 16.1 47 7.5 E 11 15 6 8 1011.6 1011.6 0.0
29/09:30pm 29.9 31.7 15.6 42 8.8 CALM 0 0 0 0 1011.6 1011.6 0.0
29/09:00pm 30.7 31.1 16.3 42 9.0 SW 9 13 5 7 1011.6 1011.6 0.0
29/08:30pm 31.7 30.2 15.2 36 10.2 N 17 22 9 12 1011.4 1011.4 0.0
29/08:00pm 31.6 30.6 16.7 40 9.4 N 17 22 9 12 1011.4 1011.4 0.0
29/07:30pm 31.7 30.4 16.8 40 9.4 N 19 24 10 13 1011.1 1011.1 0.0
29/07:00pm 32.1 30.7 15.6 37 10.3 N 17 24 9 13 1010.7 1010.7 0.0
29/06:30pm 32.2 32.1 16.1 38 10.1 N 11 15 6 8 1010.3 1010.3 0.0
29/06:00pm 32.3 32.7 16.2 38 10.1 N 9 13 5 7 1009.9 1009.9 0.0
29/05:30pm 32.7 32.2 14.8 34 11.0 NNW 11 13 6 7 1009.6 1009.6 0.0
29/05:00pm 34.1 33.5 14.6 31 12.0 NNW 11 15 6 8 1009.3 1009.3 0.0
29/04:30pm 35.4 34.6 14.1 28 13.1 N 11 17 6 9 1009.0 1009.0 0.0
29/04:00pm 36.3 35.9 13.1 25 14.1 ENE 7 17 4 9 1008.6 1008.6 0.0
29/03:30pm 37.2 36.2 13.3 24 14.6 NNE 11 15 6 8 1008.4 1008.4 0.0
29/03:00pm 36.9 36.9 14.2 25 14.1 ENE 7 17 4 9 1008.3 1008.3 0.0
29/02:30pm 36.9 36.1 13.0 24 14.6 NNW 9 17 5 9 1008.3 1008.3 0.0
29/02:00pm 38.1 37.1 14.6 24 14.7 W 13 22 7 12 1008.3 1008.3 0.0
29/01:30pm 35.7 34.6 14.4 28 13.2 NNE 13 22 7 12 1008.7 1008.7 0.0
29/01:00pm 36.4 35.5 13.8 26 13.9 NW 11 19 6 10 1009.1 1009.1 0.0
29/12:30pm 37.3 37.3 15.2 27 13.9 N 9 20 5 11 1009.4 1009.4 0.0
29/12:00pm 36.3 36.4 15.4 28 13.2 NNW 9 15 5 8 1010.2 1010.2 0.0
29/11:30am 35.4 36.0 15.7 31 12.4 NW 7 17 4 9 1010.7 1010.7 0.0
29/11:00am 35.4 34.8 16.7 33 11.9 NW 15 24 8 13 1011.2 1011.2 0.0
29/10:30am 34.4 34.4 17.2 36 11.0 WNW 13 24 7 13 1011.8 1011.8 0.0
29/10:00am 34.4 36.2 19.6 41 9.8 WNW 9 17 5 9 1012.4 1012.4 0.0
29/09:30am 33.0 34.8 19.5 45 8.9 WNW 9 13 5 7 1012.8 1012.8 0.0
29/09:00am 31.9 33.3 19.5 47 8.1 W 11 19 6 10 1012.9 1012.9 0.0
29/08:30am 31.2 33.4 19.5 49 7.7 W 7 11 4 6 1012.9 1012.9 0.0
29/08:00am 30.5 32.8 19.8 52 7.0 WSW 7 11 4 6 1012.9 1012.9 0.0
29/07:30am 29.7 32.1 19.7 55 6.5 W 6 7 3 4 1012.7 1012.7 0.0
29/07:00am 28.7 32.2 19.6 58 5.9 CALM 0 0 0 0 1012.4 1012.4 0.0
29/06:30am 27.0 30.4 19.4 63 4.9 CALM 0 0 0 0 1012.2 1012.2 0.0
29/06:00am 25.7 28.5 17.9 62 4.9 CALM 0 0 0 0 1011.9 1011.9 0.0
29/05:30am 25.6 28.3 17.8 62 4.9 CALM 0 0 0 0 1011.6 1011.6 0.0
29/05:00am 25.9 28.5 17.5 59 5.3 CALM 0 0 0 0 1011.2 1011.2 0.0
29/04:30am 25.6 28.2 17.5 61 5.1 CALM 0 0 0 0 1010.9 1010.9 0.0
29/04:00am 26.2 28.9 17.8 60 5.3 CALM 0 0 0 0 1010.6 1010.6 0.0
29/03:30am 26.4 29.1 17.7 58 5.5 CALM 0 0 0 0 1010.5 1010.5 0.0
29/03:00am 26.2 28.7 17.3 58 5.6 CALM 0 0 0 0 1010.2 1010.2 0.0
29/02:30am 26.0 27.7 17.1 58 5.5 WNW 4 6 2 3 1010.3 1010.3 0.0
29/02:00am 25.9 28.0 16.2 55 6.0 CALM 0 0 0 0 1010.3 1010.3 0.0
29/01:30am 25.6 27.4 15.6 54 6.1 CALM 0 0 0 0 1010.5 1010.5 0.0
29/01:00am 25.4 27.2 15.4 54 6.1 CALM 0 0 0 0 1010.6 1010.6 0.0
29/12:30am 25.9 27.9 15.9 54 6.1 CALM 0 0 0 0 1010.6 1010.6 0.0
29/12:00am 26.1 28.1 16.1 54 6.1 CALM 0 0 0 0 1010.8 1010.8 0.0
 
Date/Time
WST
Temp
°C
App
Temp
°C
Dew
Point
Rel
Hum
%
Delta-T
°C
Wind Press
QNH
hPa
Press
MSL
hPa
Rain
since 9 am
mm
Dir
 
Spd
km/h
Gust
km/h
Spd
kts
Gust
kts
28/11:30pm 26.6 28.6 15.9 51 6.5 CALM 0 0 0 0 1010.9 1010.9 0.0
28/11:00pm 26.9 28.9 15.9 51 6.7 CALM 0 4 0 2 1011.0 1011.0 0.0
28/10:30pm 27.3 27.5 15.7 49 7.1 E 9 9 5 5 1011.4 1011.4 0.0
28/10:00pm 27.5 27.5 15.2 47 7.5 E 9 9 5 5 1011.6 1011.6 0.0
28/09:30pm 28.1 28.3 14.7 44 8.1 SSE 7 11 4 6 1011.6 1011.6 0.0
28/09:00pm 28.9 30.3 14.3 40 8.8 CALM 0 0 0 0 1011.4 1011.4 0.0
28/08:30pm 30.2 31.7 14.7 39 9.4 CALM 0 0 0 0 1011.3 1011.3 0.0
28/08:00pm 29.7 29.4 14.3 39 9.3 SSW 9 11 5 6 1011.1 1011.1 0.0
28/07:30pm 31.0 30.2 15.0 38 9.8 N 13 17 7 9 1010.8 1010.8 0.0
28/07:00pm 31.3 30.1 16.1 40 9.5 N 17 24 9 13 1010.4 1010.4 0.0
28/06:30pm 31.5 30.5 16.6 40 9.4 N 17 24 9 13 1010.0 1010.0 0.0
28/06:00pm 31.6 30.3 16.7 40 9.4 N 19 28 10 15 1009.7 1009.7 0.0
28/05:30pm 31.7 31.1 17.6 43 9.0 N 17 24 9 13 1009.4 1009.4 0.0
28/05:00pm 32.6 31.0 16.4 37 10.2 NNE 20 28 11 15 1009.1 1009.1 0.0
28/04:30pm 33.8 32.8 16.6 35 10.9 NNE 17 26 9 14 1008.8 1008.8 0.0
28/04:00pm 34.3 32.7 17.5 36 10.8 NNE 22 30 12 16 1008.5 1008.5 0.0
28/03:30pm 34.7 33.9 17.9 37 10.9 NNE 19 26 10 14 1008.3 1008.3 0.0
28/03:00pm 35.6 35.3 17.3 33 11.8 NNE 15 28 8 15 1008.4 1008.4 0.0
28/02:30pm 35.0 36.6 14.8 29 12.5 CALM 0 4 0 2 1008.3 1008.3 0.0
28/02:00pm 35.3 35.8 15.1 30 12.6 W 6 13 3 7 1008.3 1008.3 0.0
28/01:30pm 35.1 34.2 14.9 29 12.6 WNW 13 17 7 9 1008.4 1008.4 0.0
28/01:00pm 34.9 33.8 15.3 31 12.3 WNW 15 20 8 11 1008.7 1008.7 0.0
28/12:30pm 35.2 33.6 15.0 30 12.6 WNW 17 24 9 13 1008.8 1008.8 0.0
28/12:00pm 36.1 35.7 15.2 28 13.1 NW 11 15 6 8 1009.1 1009.1 0.0
28/11:30am 35.4 34.4 15.7 31 12.4 N 15 20 8 11 1009.6 1009.6 0.0
28/11:00am 34.9 34.9 15.3 31 12.3 NE 9 17 5 9 1010.1 1010.1 0.0
28/10:30am 35.8 35.7 16.0 30 12.5 N 11 17 6 9 1010.4 1010.4 0.0
28/10:00am 35.0 36.3 17.2 34 11.4 NW 6 9 3 5 1010.9 1010.9 0.0
28/09:30am 34.0 35.0 17.7 38 10.5 SSW 9 13 5 7 1011.4 1011.4 0.0
28/09:00am 33.0 34.3 17.6 40 9.9 WSW 7 13 4 7 1011.5 1011.5 0.0
28/08:30am 31.6 33.1 17.5 43 9.0 W 6 11 3 6 1011.6 1011.6 0.0
28/08:00am 29.8 31.1 17.6 48 7.8 W 7 9 4 5 1011.7 1011.7 0.0
28/07:30am 28.7 30.1 17.9 52 6.9 W 7 9 4 5 1011.5 1011.5 0.0
28/07:00am 28.5 30.0 18.0 53 6.7 SW 7 11 4 6 1011.2 1011.2 0.0
28/06:30am 27.6 28.8 18.3 57 5.9 S 9 13 5 7 1010.7 1010.7 0.0
28/06:00am 26.4 28.6 17.5 58 5.6 WSW 2 7 1 4 1010.2 1010.2 0.0
28/05:30am 25.8 27.0 16.9 58 5.5 WNW 6 7 3 4 1009.8 1009.8 0.0
28/05:00am 25.9 28.0 16.2 55 6.0 CALM 0 0 0 0 1009.4 1009.4 0.0
28/04:30am 25.6 27.8 16.5 57 5.6 CALM 0 0 0 0 1009.3 1009.3 0.0
28/04:00am 26.1 27.9 16.4 55 6.0 WNW 2 7 1 4 1009.1 1009.1 0.0
28/03:30am 27.2 28.3 16.5 52 6.6 WSW 6 9 3 5 1009.0 1009.0 0.0
28/03:00am 27.6 28.8 16.9 52 6.7 WSW 6 7 3 4 1009.0 1009.0 0.0
28/02:30am 27.0 28.0 16.9 54 6.3 SW 7 9 4 5 1009.0 1009.0 0.0
28/02:00am 25.5 26.4 16.1 56 5.8 WSW 6 7 3 4 1009.1 1009.1 0.0
28/01:30am 24.8 26.5 15.1 54 5.8 CALM 0 0 0 0 1009.2 1009.2 0.0
28/01:00am 25.3 25.8 15.0 53 6.2 WNW 6 7 3 4 1009.1 1009.1 0.0
28/12:30am 25.9 26.8 16.2 55 5.9 NNW 6 9 3 5 1009.3 1009.3 0.0
28/12:00am 26.4 26.8 15.4 50 6.7 WSW 7 13 4 7 1009.4 1009.4 0.0
 
Date/Time
WST
Temp
°C
App
Temp
°C
Dew
Point
Rel
Hum
%
Delta-T
°C
Wind Press
QNH
hPa
Press
MSL
hPa
Rain
since 9 am
mm
Dir
 
Spd
km/h
Gust
km/h
Spd
kts
Gust
kts
27/11:30pm 26.8 27.9 16.7 54 6.3 NE 6 15 3 8 1009.4 1009.4 0.0
27/11:00pm 26.4 28.3 15.8 52 6.5 CALM 0 4 0 2 1009.5 1009.5 0.0
27/10:30pm 26.1 26.7 15.2 51 6.6 NE 6 7 3 4 1009.7 1009.7 0.0
27/10:00pm 27.4 26.8 15.7 48 7.2 E 13 15 7 8 1009.9 1009.9 0.0
27/09:30pm 26.9 27.1 14.6 46 7.4 E 7 9 4 5 1010.1 1010.1 0.0
27/09:00pm 28.1 28.1 15.1 45 7.9 E 9 11 5 6 1010.2 1010.2 0.0
27/08:30pm 29.2 29.4 14.6 41 8.8 SE 7 9 4 5 1010.3 1010.3 0.0
27/08:00pm 30.4 31.8 15.3 40 9.3 SSE 2 9 1 5 1010.0 1010.0 0.0
27/07:30pm 30.9 31.2 14.9 37 9.8 NE 7 9 4 5 1009.8 1009.8 0.0

Other Formats:

Comma delimited format used in spreadsheet applications
http://www.bom.gov.au/fwo/IDW60801/IDW60801.95214.axf

JavaScript Object Notation format (JSON) in row-major order
http://www.bom.gov.au/fwo/IDW60801/IDW60801.95214.json